createdAt,value
2022-09-24T00:01:07.513Z,93327.84
2022-09-24T00:02:39.108Z,93330.50
2022-09-24T00:04:12.518Z,93336.94
2022-09-24T00:05:44.547Z,93325.97
2022-09-24T00:07:16.410Z,93333.50
2022-09-24T00:08:49.121Z,93330.28
2022-09-24T00:10:20.779Z,93327.63
2022-09-24T00:11:55.161Z,93332.41
2022-09-24T00:13:26.715Z,93322.25
2022-09-24T00:14:58.239Z,93329.75
2022-09-24T00:16:31.925Z,93330.31
2022-09-24T00:18:03.938Z,93326.56
2022-09-24T00:19:35.531Z,93326.06
2022-09-24T00:21:36.528Z,93320.16
2022-09-24T00:23:08.621Z,93319.91
2022-09-24T00:24:58.840Z,93326.56
2022-09-24T00:26:49.027Z,93318.28
2022-09-24T00:28:20.587Z,93310.53
2022-09-24T00:29:52.085Z,93315.09
2022-09-24T00:31:23.642Z,93315.38
2022-09-24T00:32:55.405Z,93312.47
2022-09-24T00:34:27.200Z,93314.34
2022-09-24T00:35:59.529Z,93313.81
2022-09-24T00:37:31.065Z,93312.75
2022-09-24T00:39:03.452Z,93312.00
2022-09-24T00:40:35.883Z,93317.06
2022-09-24T00:42:07.534Z,93310.94
2022-09-24T00:43:39.317Z,93308.53
2022-09-24T00:45:11.035Z,93307.50
2022-09-24T00:46:42.927Z,93306.44
2022-09-24T00:48:14.634Z,93316.06
2022-09-24T00:49:48.266Z,93304.84
2022-09-24T00:51:21.056Z,93312.06
2022-09-24T00:52:57.002Z,93310.75
2022-09-24T00:54:28.803Z,93313.97
2022-09-24T00:56:01.103Z,93316.91
2022-09-24T00:57:33.139Z,93316.09
2022-09-24T00:59:05.010Z,93313.97
2022-09-24T01:00:39.459Z,93309.69
2022-09-24T01:02:11.265Z,93309.97
2022-09-24T01:03:42.825Z,93311.28
2022-09-24T01:05:14.594Z,93310.50
2022-09-24T01:06:46.287Z,93316.63
2022-09-24T01:08:18.433Z,93314.53
2022-09-24T01:09:50.189Z,93316.66
2022-09-24T01:11:51.281Z,93314.81
2022-09-24T01:13:43.550Z,93314.00
2022-09-24T01:15:18.369Z,93316.41
2022-09-24T01:17:07.948Z,93313.72
2022-09-24T01:19:00.957Z,93319.34
2022-09-24T01:20:43.656Z,93312.69
2022-09-24T01:22:20.939Z,93314.03
2022-09-24T01:24:10.737Z,93324.75
2022-09-24T01:26:01.344Z,93323.41
2022-09-24T01:27:33.343Z,93325.53
2022-09-24T01:29:23.461Z,93319.44
2022-09-24T01:30:56.410Z,93315.69
2022-09-24T01:32:32.298Z,93322.38
2022-09-24T01:34:05.947Z,93321.31
2022-09-24T01:35:38.119Z,93325.31
2022-09-24T01:37:09.734Z,93321.31
2022-09-24T01:38:42.198Z,93319.47
2022-09-24T01:40:14.297Z,93321.88
2022-09-24T01:41:46.021Z,93323.19
2022-09-24T01:43:18.090Z,93320.53
2022-09-24T01:44:50.543Z,93320.00
2022-09-24T01:46:22.183Z,93322.13
2022-09-24T01:47:53.850Z,93317.06
2022-09-24T01:49:25.382Z,93323.19
2022-09-24T01:51:04.283Z,93324.00
2022-09-24T01:52:39.483Z,93318.94
2022-09-24T01:54:12.826Z,93321.06
2022-09-24T01:55:45.742Z,93330.16
2022-09-24T01:57:24.363Z,93325.34
2022-09-24T01:59:16.259Z,93335.75
2022-09-24T02:00:47.978Z,93330.66
2022-09-24T02:02:30.144Z,93329.59
2022-09-24T02:04:06.406Z,93336.28
2022-09-24T02:05:39.048Z,93330.94
2022-09-24T02:07:13.507Z,93330.94
2022-09-24T02:08:45.964Z,93329.59
2022-09-24T02:10:18.152Z,93337.88
2022-09-24T02:11:51.018Z,93333.59
2022-09-24T02:13:25.256Z,93334.97
2022-09-24T02:15:07.665Z,93338.94
2022-09-24T02:16:41.055Z,93336.81
2022-09-24T02:18:12.981Z,93339.50
2022-09-24T02:19:44.564Z,93341.63
2022-09-24T02:21:18.150Z,93343.47
2022-09-24T02:22:49.800Z,93342.94
2022-09-24T02:24:23.250Z,93342.69
2022-09-24T02:25:59.106Z,93346.66
2022-09-24T02:27:31.511Z,93343.47
2022-09-24T02:29:03.024Z,93348.25
2022-09-24T02:30:38.085Z,93352.00
2022-09-24T02:32:10.418Z,93354.91
2022-09-24T02:34:04.302Z,93349.84
2022-09-24T02:35:40.909Z,93355.19
2022-09-24T02:37:12.574Z,93357.84
2022-09-24T02:38:46.461Z,93357.59
2022-09-24T02:40:18.109Z,93360.50
2022-09-24T02:41:49.837Z,93352.50
2022-09-24T02:43:21.626Z,93356.53
2022-09-24T02:44:55.603Z,93360.00
2022-09-24T02:46:27.307Z,93350.66
2022-09-24T02:47:58.956Z,93354.66
2022-09-24T02:49:30.665Z,93354.94
2022-09-24T02:51:04.232Z,93354.16
2022-09-24T02:52:35.845Z,93358.41
2022-09-24T02:54:07.683Z,93363.19
2022-09-24T02:55:39.353Z,93369.06
2022-09-24T02:57:11.109Z,93366.41
2022-09-24T02:58:43.477Z,93367.72
2022-09-24T03:00:15.270Z,93376.75
2022-09-24T03:01:47.206Z,93380.25
2022-09-24T03:03:18.922Z,93379.16
2022-09-24T03:04:52.026Z,93378.34
2022-09-24T03:06:25.141Z,93376.47
2022-09-24T03:07:58.944Z,93374.31
2022-09-24T03:09:30.516Z,93373.22
2022-09-24T03:11:02.194Z,93370.25
2022-09-24T03:12:33.846Z,93372.91
2022-09-24T03:14:05.631Z,93363.03
2022-09-24T03:15:37.170Z,93363.28
2022-09-24T03:17:08.699Z,93364.59
2022-09-24T03:18:40.289Z,93365.09
2022-09-24T03:20:11.772Z,93364.28
2022-09-24T03:21:43.324Z,93365.91
2022-09-24T03:23:14.972Z,93371.22
2022-09-24T03:24:46.531Z,93376.03
2022-09-24T03:26:18.222Z,93367.28
2022-09-24T03:27:49.722Z,93370.78
2022-09-24T03:29:41.297Z,93372.38
2022-09-24T03:31:13.050Z,93374.50
2022-09-24T03:32:44.702Z,93364.91
2022-09-24T03:34:16.251Z,93368.66
2022-09-24T03:35:47.757Z,93371.34
2022-09-24T03:37:19.294Z,93374.25
2022-09-24T03:38:51.438Z,93369.44
2022-09-24T03:40:23.176Z,93374.25
2022-09-24T03:41:54.852Z,93380.91
2022-09-24T03:43:26.596Z,93372.34
2022-09-24T03:44:59.187Z,93375.81
2022-09-24T03:46:30.857Z,93369.69
2022-09-24T03:48:02.534Z,93371.31
2022-09-24T03:49:34.153Z,93378.50
2022-09-24T03:51:06.379Z,93372.34
2022-09-24T03:52:39.042Z,93369.97
2022-09-24T03:54:11.014Z,93373.97
2022-09-24T03:56:02.994Z,93376.13
2022-09-24T03:57:34.657Z,93382.00
2022-09-24T03:59:06.373Z,93373.75
2022-09-24T04:00:41.072Z,93376.66
2022-09-24T04:02:13.244Z,93385.72
2022-09-24T04:03:44.933Z,93380.91
2022-09-24T04:05:16.587Z,93380.63
2022-09-24T04:06:48.130Z,93384.38
2022-09-24T04:08:20.148Z,93380.91
2022-09-24T04:09:51.712Z,93384.88
2022-09-24T04:11:24.225Z,93376.59
2022-09-24T04:12:56.116Z,93384.06
2022-09-24T04:14:27.826Z,93385.94
2022-09-24T04:16:05.609Z,93374.72
2022-09-24T04:17:37.331Z,93388.00
2022-09-24T04:19:09.063Z,93388.53
2022-09-24T04:20:40.766Z,93395.41
2022-09-24T04:22:12.495Z,93390.91
2022-09-24T04:23:44.107Z,93394.09
2022-09-24T04:25:15.842Z,93392.25
2022-09-24T04:26:47.396Z,93390.41
2022-09-24T04:28:19.017Z,93396.03
2022-09-24T04:29:50.747Z,93391.81
2022-09-24T04:31:23.863Z,93400.34
2022-09-24T04:32:55.539Z,93397.44
2022-09-24T04:34:27.083Z,93400.59
2022-09-24T04:35:58.649Z,93397.69
2022-09-24T04:37:30.339Z,93406.75
2022-09-24T04:39:03.574Z,93405.41
2022-09-24T04:40:35.545Z,93399.53
2022-09-24T04:42:07.412Z,93402.75
2022-09-24T04:43:39.127Z,93406.72
2022-09-24T04:45:11.073Z,93405.88
2022-09-24T04:46:43.141Z,93406.13
2022-09-24T04:48:14.926Z,93407.25
2022-09-24T04:49:46.586Z,93407.78
2022-09-24T04:51:19.795Z,93414.50
2022-09-24T04:52:51.613Z,93415.84
2022-09-24T04:54:23.615Z,93420.38
2022-09-24T04:55:55.391Z,93411.59
2022-09-24T04:57:27.474Z,93413.78
2022-09-24T04:58:59.493Z,93413.53
2022-09-24T05:00:33.217Z,93410.63
2022-09-24T05:02:09.508Z,93408.75
2022-09-24T05:03:42.276Z,93412.00
2022-09-24T05:05:14.079Z,93406.97
2022-09-24T05:06:45.736Z,93405.38
2022-09-24T05:08:17.426Z,93411.00
2022-09-24T05:09:49.050Z,93412.34
2022-09-24T05:11:21.166Z,93408.31
2022-09-24T05:12:53.210Z,93411.78
2022-09-24T05:14:25.346Z,93401.13
2022-09-24T05:15:57.059Z,93403.50
2022-09-24T05:17:28.963Z,93409.34
2022-09-24T05:19:01.642Z,93409.03
2022-09-24T05:20:33.515Z,93404.22
2022-09-24T05:22:05.333Z,93408.25
2022-09-24T05:23:37.488Z,93409.28
2022-09-24T05:25:09.564Z,93420.75
2022-09-24T05:26:59.891Z,93421.22
2022-09-24T05:28:33.459Z,93419.59
2022-09-24T05:30:06.534Z,93421.16
2022-09-24T05:31:38.429Z,93424.06
2022-09-24T05:33:10.417Z,93428.00
2022-09-24T05:34:45.807Z,93427.69
2022-09-24T05:36:18.754Z,93425.28
2022-09-24T05:37:53.589Z,93427.34
2022-09-24T05:39:28.904Z,93430.50
2022-09-24T05:41:04.063Z,93432.91
2022-09-24T05:42:35.964Z,93438.00
2022-09-24T05:44:08.011Z,93437.72
2022-09-24T05:45:42.128Z,93436.97
2022-09-24T05:47:14.079Z,93438.59
2022-09-24T05:48:45.811Z,93444.75
2022-09-24T05:50:17.634Z,93443.63
2022-09-24T05:51:50.664Z,93451.63
2022-09-24T05:53:23.492Z,93449.97
2022-09-24T05:54:55.336Z,93444.06
2022-09-24T05:56:27.037Z,93445.31
2022-09-24T05:58:06.239Z,93449.22
2022-09-24T05:59:38.476Z,93450.41
2022-09-24T06:01:10.672Z,93451.84
2022-09-24T06:02:43.075Z,93448.78
2022-09-24T06:04:15.349Z,93444.56
2022-09-24T06:05:49.207Z,93450.91
2022-09-24T06:07:22.103Z,93444.81
2022-09-24T06:08:53.937Z,93449.69
2022-09-24T06:10:26.684Z,93449.72
2022-09-24T06:11:58.893Z,93448.22
2022-09-24T06:13:32.294Z,93456.41
2022-09-24T06:15:04.719Z,93457.16
2022-09-24T06:16:36.881Z,93453.09
2022-09-24T06:18:09.052Z,93459.84
2022-09-24T06:19:40.810Z,93461.97
2022-09-24T06:21:13.383Z,93463.50
2022-09-24T06:22:45.229Z,93463.41
2022-09-24T06:24:16.934Z,93458.59
2022-09-24T06:25:52.263Z,93464.22
2022-09-24T06:27:24.045Z,93458.91
2022-09-24T06:46:02.217Z,93465.25
2022-09-24T06:47:33.826Z,93462.44
2022-09-24T06:49:05.683Z,93466.69
2022-09-24T06:50:38.355Z,93459.72
2022-09-24T06:52:10.336Z,93459.47
2022-09-24T06:53:41.981Z,93462.94
2022-09-24T06:55:13.672Z,93452.31
2022-09-24T06:56:45.342Z,93454.19
2022-09-24T06:58:18.312Z,93458.28
2022-09-24T06:59:51.711Z,93452.03
2022-09-24T07:01:23.493Z,93457.47
2022-09-24T07:02:55.228Z,93452.56
2022-09-24T07:04:26.943Z,93447.47
2022-09-24T07:06:02.674Z,93454.69
2022-09-24T07:07:34.577Z,93455.53
2022-09-24T07:09:06.325Z,93456.50
2022-09-24T07:10:42.433Z,93453.13
2022-09-24T07:12:14.421Z,93450.78
2022-09-24T07:13:46.185Z,93463.84
2022-09-24T07:15:18.065Z,93457.38
2022-09-24T07:16:49.836Z,93452.66
2022-09-24T07:18:21.721Z,93449.97
2022-09-24T07:19:53.525Z,93457.75
2022-09-24T07:21:25.097Z,93450.63
2022-09-24T07:22:56.968Z,93448.41
2022-09-24T07:24:28.979Z,93446.66
2022-09-24T07:26:00.869Z,93444.63
2022-09-24T07:27:33.330Z,93448.91
2022-09-24T07:29:05.428Z,93450.38
2022-09-24T07:30:37.120Z,93449.78
2022-09-24T07:32:08.840Z,93449.75
2022-09-24T07:33:40.604Z,93449.91
2022-09-24T07:35:12.361Z,93447.22
2022-09-24T07:36:44.671Z,93445.44
2022-09-24T07:38:16.996Z,93443.34
2022-09-24T07:39:48.578Z,93447.63
2022-09-24T07:41:20.582Z,93443.50
2022-09-24T07:42:52.433Z,93444.00
2022-09-24T07:44:24.213Z,93450.19
2022-09-24T07:45:55.905Z,93440.75
2022-09-24T07:47:27.681Z,93451.56
2022-09-24T07:48:59.507Z,93448.66
2022-09-24T07:50:32.079Z,93446.41
2022-09-24T07:52:03.831Z,93444.94
2022-09-24T07:53:35.585Z,93448.47
2022-09-24T07:55:07.894Z,93439.81
2022-09-24T07:56:40.127Z,93442.00
2022-09-24T07:58:14.905Z,93440.09
2022-09-24T07:59:47.231Z,93440.81
2022-09-24T08:01:19.415Z,93445.66
2022-09-24T08:02:54.437Z,93445.25
2022-09-24T08:04:26.368Z,93446.50
2022-09-24T08:06:01.024Z,93444.53
2022-09-24T08:07:32.709Z,93453.69
2022-09-24T08:09:04.892Z,93449.91
2022-09-24T08:10:37.156Z,93452.44
2022-09-24T08:12:09.776Z,93445.75
2022-09-24T08:13:41.759Z,93449.72
2022-09-24T08:15:14.341Z,93454.94
2022-09-24T08:16:46.474Z,93452.69
2022-09-24T08:18:18.388Z,93445.19
2022-09-24T08:19:52.428Z,93448.63
2022-09-24T08:21:24.147Z,93446.84
2022-09-24T08:23:01.014Z,93446.59
2022-09-24T08:24:32.747Z,93435.84
2022-09-24T08:26:05.884Z,93434.91
2022-09-24T08:27:38.168Z,93437.34
2022-09-24T08:29:10.034Z,93435.66
2022-09-24T08:30:42.560Z,93434.75
2022-09-24T08:32:14.465Z,93439.19
2022-09-24T08:33:50.898Z,93435.34
2022-09-24T08:35:22.876Z,93436.84
2022-09-24T08:36:54.985Z,93429.72
2022-09-24T08:38:27.644Z,93434.97
2022-09-24T08:39:59.315Z,93435.31
2022-09-24T08:41:34.351Z,93434.63
2022-09-24T08:43:24.412Z,93431.47
2022-09-24T08:45:16.037Z,93438.25
2022-09-24T08:47:09.479Z,93430.78
2022-09-24T08:48:42.510Z,93439.19
2022-09-24T08:50:18.486Z,93433.25
2022-09-24T08:52:10.997Z,93436.06
2022-09-24T08:53:58.435Z,93432.78
2022-09-24T08:55:36.080Z,93433.34
2022-09-24T08:57:12.278Z,93424.50
2022-09-24T08:59:00.095Z,93419.97
2022-09-24T09:00:32.214Z,93418.81
2022-09-24T09:02:04.728Z,93414.34
2022-09-24T09:03:39.588Z,93423.66
2022-09-24T09:05:28.261Z,93413.06
2022-09-24T09:07:13.163Z,93412.13
2022-09-24T09:09:05.615Z,93417.44
2022-09-24T09:10:40.287Z,93421.00
2022-09-24T09:12:25.865Z,93426.59
2022-09-24T09:14:10.504Z,93420.84
2022-09-24T09:15:50.512Z,93415.53
2022-09-24T09:17:43.751Z,93411.69
2022-09-24T09:19:17.870Z,93412.50
2022-09-24T09:20:49.862Z,93410.09
2022-09-24T09:22:34.565Z,93398.38
2022-09-24T09:24:06.453Z,93403.59
2022-09-24T09:25:38.244Z,93407.69
2022-09-24T09:27:20.377Z,93408.47
2022-09-24T09:29:14.300Z,93403.22
2022-09-24T09:31:07.443Z,93394.75
2022-09-24T09:33:01.287Z,93393.72
2022-09-24T09:34:52.325Z,93394.06
2022-09-24T09:36:30.379Z,93386.84
2022-09-24T09:38:09.713Z,93389.06
2022-09-24T09:39:44.589Z,93395.66
2022-09-24T09:41:34.473Z,93389.06
2022-09-24T09:43:15.408Z,93386.22
2022-09-24T09:44:47.102Z,93397.16
2022-09-24T09:46:21.150Z,93390.44
2022-09-24T09:47:56.146Z,93388.78
2022-09-24T09:49:29.455Z,93384.09
2022-09-24T09:51:05.744Z,93391.94
2022-09-24T09:52:38.843Z,93388.50
2022-09-24T09:54:14.200Z,93392.97
2022-09-24T09:55:46.381Z,93386.19
2022-09-24T09:57:22.191Z,93385.28
2022-09-24T09:59:01.687Z,93388.56
2022-09-24T10:00:34.861Z,93385.63
2022-09-24T10:02:21.581Z,93380.75
2022-09-24T10:03:55.590Z,93386.72
2022-09-24T10:05:29.650Z,93383.41
2022-09-24T10:07:19.323Z,93380.03
2022-09-24T10:08:56.952Z,93374.34
2022-09-24T10:10:28.903Z,93370.47
2022-09-24T10:12:27.150Z,93367.25
2022-09-24T10:14:02.712Z,93368.88
2022-09-24T10:15:34.544Z,93368.56
2022-09-24T10:17:07.213Z,93359.75
2022-09-24T10:18:38.986Z,93367.50
2022-09-24T10:20:24.524Z,93373.59
2022-09-24T10:21:57.918Z,93371.25
2022-09-24T10:23:49.937Z,93365.00
2022-09-24T10:25:26.421Z,93362.81
2022-09-24T10:26:59.091Z,93367.25
2022-09-24T10:28:49.422Z,93363.09
2022-09-24T10:30:36.313Z,93356.81
2022-09-24T10:32:17.698Z,93356.94
2022-09-24T10:33:50.390Z,93347.31
2022-09-24T10:35:30.378Z,93353.72
2022-09-24T10:37:07.278Z,93344.25
2022-09-24T10:38:46.422Z,93344.25
2022-09-24T10:40:24.963Z,93352.81
2022-09-24T10:41:59.667Z,93343.88
2022-09-24T10:43:32.389Z,93347.09
2022-09-24T10:45:05.100Z,93347.53
2022-09-24T10:46:43.255Z,93340.72
2022-09-24T10:48:26.840Z,93353.72
2022-09-24T10:50:04.653Z,93340.47
2022-09-24T10:51:40.100Z,93350.19
2022-09-24T10:53:18.610Z,93358.13
2022-09-24T10:55:26.367Z,93343.50
2022-09-24T10:56:58.196Z,93339.59
2022-09-24T10:58:53.461Z,93347.91
2022-09-24T11:00:27.413Z,93356.56
2022-09-24T11:02:09.639Z,93353.91
2022-09-24T11:03:59.416Z,93344.22
2022-09-24T11:05:33.298Z,93342.50
2022-09-24T11:07:25.208Z,93342.78
2022-09-24T11:09:15.671Z,93345.16
2022-09-24T11:11:06.808Z,93350.13
2022-09-24T11:12:41.947Z,93340.09
2022-09-24T11:14:24.862Z,93346.03
2022-09-24T11:16:18.885Z,93345.50
2022-09-24T11:18:03.019Z,93335.53
2022-09-24T11:19:57.353Z,93340.97
2022-09-24T11:21:38.039Z,93345.00
2022-09-24T11:23:18.302Z,93338.84
2022-09-24T11:24:57.260Z,93327.59
2022-09-24T11:27:09.520Z,93329.56
2022-09-24T11:29:12.138Z,93325.16
2022-09-24T11:31:10.258Z,93326.41
2022-09-24T11:32:48.030Z,93327.13
2022-09-24T11:36:50.542Z,93312.59
2022-09-24T11:38:33.879Z,93309.50
2022-09-24T11:42:42.952Z,93304.09
2022-09-24T11:44:26.461Z,93307.56
2022-09-24T11:46:20.981Z,93301.06
2022-09-24T11:48:00.634Z,93303.69
2022-09-24T11:50:12.955Z,93303.06
2022-09-24T11:51:55.851Z,93292.69
2022-09-24T11:54:09.125Z,93293.69
2022-09-24T11:58:39.058Z,93291.28
2022-09-24T12:00:23.675Z,93294.06
2022-09-24T12:02:37.351Z,93289.00
2022-09-24T12:04:14.993Z,93293.56
2022-09-24T12:06:05.746Z,93291.00
2022-09-24T12:07:43.796Z,93285.28
2022-09-24T12:09:20.433Z,93283.50
2022-09-24T12:11:26.821Z,93286.53
2022-09-24T12:13:21.605Z,93287.06
2022-09-24T12:14:58.432Z,93292.75
2022-09-24T12:16:33.562Z,93284.56
2022-09-24T12:19:39.971Z,93285.38
2022-09-24T12:21:22.449Z,93288.94
2022-09-24T12:23:06.904Z,93277.78
2022-09-24T12:24:58.932Z,93279.00
2022-09-24T12:26:31.900Z,93279.75
2022-09-24T12:28:03.650Z,93272.50
2022-09-24T12:29:59.376Z,93266.28
2022-09-24T12:31:51.657Z,93268.94
2022-09-24T12:33:28.450Z,93263.59
2022-09-24T12:35:09.519Z,93273.84
2022-09-24T12:36:41.269Z,93266.56
2022-09-24T12:38:12.930Z,93270.47
2022-09-24T12:39:50.189Z,93270.81
2022-09-24T12:41:27.590Z,93268.03
2022-09-24T12:42:59.374Z,93277.53
2022-09-24T12:44:37.008Z,93277.31
2022-09-24T12:46:13.446Z,93275.44
2022-09-24T12:47:55.817Z,93271.41
2022-09-24T12:49:31.639Z,93270.00
2022-09-24T12:51:10.418Z,93277.25
2022-09-24T12:52:42.274Z,93278.16
2022-09-24T12:54:49.700Z,93269.03
2022-09-24T12:56:24.123Z,93269.78
2022-09-24T12:57:58.352Z,93265.53
2022-09-24T12:59:30.217Z,93256.22
2022-09-24T13:01:14.662Z,93250.31
2022-09-24T13:02:53.519Z,93258.00
2022-09-24T13:04:26.352Z,93251.25
2022-09-24T13:06:00.388Z,93256.44
2022-09-24T13:07:33.490Z,93251.09
2022-09-24T13:09:26.249Z,93257.13
2022-09-24T13:11:08.040Z,93248.63
2022-09-24T13:12:40.357Z,93269.56
2022-09-24T13:14:21.744Z,93256.41
2022-09-24T13:16:00.903Z,93246.09
2022-09-24T13:17:38.239Z,93241.31
2022-09-24T13:19:43.893Z,93254.28
2022-09-24T13:21:34.656Z,93260.28
2022-09-24T13:23:12.858Z,93253.38
2022-09-24T13:24:49.273Z,93247.84
2022-09-24T13:28:56.841Z,93244.91
2022-09-24T13:30:39.549Z,93251.91
2022-09-24T13:32:14.785Z,93253.84
2022-09-24T13:33:48.532Z,93255.66
2022-09-24T13:35:22.274Z,93247.91
2022-09-24T13:36:59.116Z,93248.00
2022-09-24T13:38:33.972Z,93246.50
2022-09-24T13:40:16.934Z,93245.03
2022-09-24T13:42:09.492Z,93244.91
2022-09-24T13:44:00.032Z,93240.63
2022-09-24T13:45:32.277Z,93239.50
2022-09-24T13:47:12.615Z,93249.16
2022-09-24T13:48:54.175Z,93234.59
2022-09-24T13:50:28.365Z,93233.56
2022-09-24T13:52:08.843Z,93229.75
2022-09-24T13:53:52.144Z,93223.84
2022-09-24T13:55:36.053Z,93229.19
2022-09-24T13:57:34.300Z,93223.63
2022-09-24T13:59:07.365Z,93223.19
2022-09-24T14:00:39.738Z,93221.84
2022-09-24T14:02:28.110Z,93222.56
2022-09-24T14:04:03.824Z,93218.31
2022-09-24T14:05:37.486Z,93219.66
2022-09-24T14:07:09.773Z,93211.09
2022-09-24T14:08:46.706Z,93211.97
2022-09-24T14:10:18.449Z,93215.88
2022-09-24T14:11:51.030Z,93208.25
2022-09-24T14:13:23.626Z,93206.63
2022-09-24T14:15:02.179Z,93208.16
2022-09-24T14:17:05.010Z,93208.81
2022-09-24T14:18:40.347Z,93213.69
2022-09-24T14:20:34.706Z,93215.72
2022-09-24T14:24:07.557Z,93213.16
2022-09-24T14:25:40.411Z,93215.78
2022-09-24T14:27:32.907Z,93207.38
2022-09-24T14:29:09.560Z,93207.22
2022-09-24T14:30:58.233Z,93204.44
2022-09-24T14:32:41.545Z,93211.38
2022-09-24T14:34:28.146Z,93216.00
2022-09-24T14:35:59.970Z,93208.84
2022-09-24T14:37:33.267Z,93207.97
2022-09-24T14:39:05.875Z,93207.03
2022-09-24T14:40:44.597Z,93209.78
2022-09-24T14:42:22.834Z,93206.59
2022-09-24T14:44:07.275Z,93208.25
2022-09-24T14:45:50.486Z,93207.22
2022-09-24T14:48:11.894Z,93207.22
2022-09-24T14:49:49.574Z,93199.47
2022-09-24T14:51:32.071Z,93202.44
2022-09-24T14:53:31.563Z,93196.97
2022-09-24T14:55:56.594Z,93213.06
2022-09-24T14:57:28.705Z,93201.34
2022-09-24T14:59:36.926Z,93197.56
2022-09-24T15:01:18.042Z,93199.09
2022-09-24T15:03:02.012Z,93204.69
2022-09-24T15:04:34.386Z,93202.09
2022-09-24T15:06:10.024Z,93201.91
2022-09-24T15:07:42.619Z,93208.56
2022-09-24T15:09:58.295Z,93210.53
2022-09-24T15:16:42.033Z,93208.41
2022-09-24T15:18:23.065Z,93207.13
2022-09-24T15:20:39.511Z,93209.66
2022-09-24T15:22:23.089Z,93212.47
2022-09-24T15:23:56.087Z,93223.63
2022-09-24T15:25:45.497Z,93222.69
2022-09-24T15:28:07.437Z,93221.22
2022-09-24T15:29:37.035Z,93225.72
2022-09-24T15:31:19.388Z,93224.72
2022-09-24T15:32:57.605Z,93229.16
2022-09-24T15:34:30.229Z,93229.00
2022-09-24T15:36:22.135Z,93227.78
2022-09-24T15:37:56.392Z,93228.13
2022-09-24T15:39:28.219Z,93236.25
2022-09-24T15:41:02.447Z,93237.03
2022-09-24T15:42:34.317Z,93227.31
2022-09-24T15:44:06.983Z,93236.03
2022-09-24T15:45:57.497Z,93237.63
2022-09-24T15:47:30.990Z,93234.13
2022-09-24T15:49:03.598Z,93230.59
2022-09-24T15:50:41.839Z,93227.09
2022-09-24T15:52:15.699Z,93232.88
2022-09-24T15:53:51.296Z,93230.44
2022-09-24T15:55:25.912Z,93230.53
2022-09-24T15:56:57.803Z,93232.97
2022-09-24T15:58:30.707Z,93234.22
2022-09-24T16:00:03.186Z,93229.91
2022-09-24T16:01:35.465Z,93227.63
2022-09-24T16:03:16.501Z,93231.50
2022-09-24T16:04:48.633Z,93231.19
2022-09-24T16:06:21.905Z,93229.63
2022-09-24T16:07:57.052Z,93229.56
2022-09-24T16:09:29.260Z,93239.66
2022-09-24T16:11:04.767Z,93228.84
2022-09-24T16:12:38.865Z,93231.38
2022-09-24T16:14:11.025Z,93231.25
2022-09-24T16:15:42.997Z,93227.59
2022-09-24T16:17:15.819Z,93233.47
2022-09-24T16:18:47.910Z,93233.34
2022-09-24T16:20:20.423Z,93236.34
2022-09-24T16:21:52.811Z,93235.75
2022-09-24T16:23:25.339Z,93230.06
2022-09-24T16:24:57.428Z,93238.34
2022-09-24T16:26:29.858Z,93236.50
2022-09-24T16:28:01.817Z,93235.44
2022-09-24T16:29:34.054Z,93227.28
2022-09-24T16:31:07.550Z,93224.22
2022-09-24T16:32:39.461Z,93233.09
2022-09-24T16:34:11.841Z,93238.69
2022-09-24T16:35:44.141Z,93235.09
2022-09-24T16:37:17.829Z,93234.19
2022-09-24T16:38:49.823Z,93239.13
2022-09-24T16:40:23.355Z,93238.03
2022-09-24T16:41:55.568Z,93240.53
2022-09-24T16:43:27.453Z,93247.38
2022-09-24T16:44:59.252Z,93248.66
2022-09-24T16:46:31.987Z,93249.84
2022-09-24T16:48:03.943Z,93248.94
2022-09-24T16:49:35.711Z,93258.22
2022-09-24T16:51:08.088Z,93252.00
2022-09-24T16:52:40.525Z,93255.44
2022-09-24T16:54:14.294Z,93256.91
2022-09-24T16:55:45.905Z,93253.63
2022-09-24T16:57:17.544Z,93256.13
2022-09-24T16:58:49.559Z,93264.78
2022-09-24T17:00:21.292Z,93261.59
2022-09-24T17:01:54.368Z,93271.22
2022-09-24T17:03:26.440Z,93275.00
2022-09-24T17:05:01.504Z,93271.47
2022-09-24T17:06:34.619Z,93273.28
2022-09-24T17:08:06.620Z,93272.50
2022-09-24T17:09:56.798Z,93272.38
2022-09-24T17:11:28.660Z,93282.81
2022-09-24T17:13:02.517Z,93278.25
2022-09-24T17:14:37.163Z,93282.13
2022-09-24T17:16:10.165Z,93292.97
2022-09-24T17:17:49.143Z,93287.75
2022-09-24T17:19:21.962Z,93290.81
2022-09-24T17:21:00.555Z,93288.78
2022-09-24T17:22:32.740Z,93299.84
2022-09-24T17:24:04.604Z,93300.41
2022-09-24T17:25:37.254Z,93296.31
2022-09-24T17:27:09.243Z,93300.75
2022-09-24T17:28:41.729Z,93301.09
2022-09-24T17:30:13.752Z,93298.56
2022-09-24T17:31:46.166Z,93304.34
2022-09-24T17:33:41.764Z,93295.63
2022-09-24T17:35:09.946Z,93309.31
2022-09-24T17:36:41.802Z,93311.56
2022-09-24T17:38:17.887Z,93316.72
2022-09-24T17:39:49.690Z,93309.69
2022-09-24T17:41:21.699Z,93308.25
2022-09-24T17:42:53.922Z,93311.56
2022-09-24T17:44:26.155Z,93311.66
2022-09-24T17:45:59.357Z,93315.06
2022-09-24T17:47:53.830Z,93310.16
2022-09-24T17:49:25.659Z,93310.16
2022-09-24T17:50:58.410Z,93307.66
2022-09-24T17:52:30.231Z,93308.97
2022-09-24T17:54:02.855Z,93309.53
2022-09-24T17:55:35.151Z,93313.69
2022-09-24T17:57:07.222Z,93314.66
2022-09-24T17:58:39.883Z,93308.81
2022-09-24T18:00:12.116Z,93312.19
2022-09-24T18:01:44.649Z,93313.16
2022-09-24T18:03:16.800Z,93319.06
2022-09-24T18:04:48.650Z,93318.25
2022-09-24T18:06:21.007Z,93325.47
2022-09-24T18:07:52.834Z,93327.91
2022-09-24T18:09:25.226Z,93328.78
2022-09-24T18:11:03.725Z,93325.44
2022-09-24T18:12:35.566Z,93320.22
2022-09-24T18:14:07.925Z,93330.59
2022-09-24T18:15:40.647Z,93326.31
2022-09-24T18:17:12.543Z,93331.06
2022-09-24T18:18:44.585Z,93334.44
2022-09-24T18:20:16.646Z,93331.94
2022-09-24T18:21:51.394Z,93337.53
2022-09-24T18:23:23.291Z,93336.56
2022-09-24T18:24:56.869Z,93340.06
2022-09-24T18:26:29.959Z,93335.75
2022-09-24T18:28:03.369Z,93336.88
2022-09-24T18:29:35.516Z,93334.03
2022-09-24T18:31:08.317Z,93331.03
2022-09-24T18:32:40.837Z,93334.75
2022-09-24T18:34:13.934Z,93333.31
2022-09-24T18:35:45.972Z,93331.72
2022-09-24T18:37:17.726Z,93331.88
2022-09-24T18:38:49.886Z,93331.59
2022-09-24T18:40:21.897Z,93328.28
2022-09-24T18:41:53.937Z,93324.97
2022-09-24T18:43:25.966Z,93331.97
2022-09-24T18:44:58.178Z,93333.88
2022-09-24T18:46:30.360Z,93328.78
2022-09-24T18:48:02.418Z,93335.31
2022-09-24T18:49:36.581Z,93335.84
2022-09-24T18:51:18.033Z,93339.97
2022-09-24T18:52:50.062Z,93332.66
2022-09-24T18:54:21.920Z,93338.38
2022-09-24T18:55:54.069Z,93334.41
2022-09-24T18:57:26.611Z,93334.91
2022-09-24T18:59:07.122Z,93329.19
2022-09-24T19:00:52.049Z,93333.34
2022-09-24T19:02:25.779Z,93333.69
2022-09-24T19:04:01.247Z,93334.47
2022-09-24T19:05:33.861Z,93334.47
2022-09-24T19:07:08.268Z,93339.09
2022-09-24T19:08:40.670Z,93337.19
2022-09-24T19:10:12.631Z,93338.81
2022-09-24T19:11:45.937Z,93330.22
2022-09-24T19:13:21.374Z,93327.66
2022-09-24T19:14:58.035Z,93327.03
2022-09-24T19:16:30.046Z,93337.50
2022-09-24T19:18:02.028Z,93336.72
2022-09-24T19:19:33.877Z,93330.72
2022-09-24T19:21:09.440Z,93341.03
2022-09-24T19:22:43.811Z,93338.81
2022-09-24T19:24:15.847Z,93340.72
2022-09-24T19:25:48.436Z,93330.88
2022-09-24T19:27:21.251Z,93332.47
2022-09-24T19:28:53.628Z,93339.94